Time;durP1;ratioP1;P1;durP2;ratioP2;P2;SDS_P1;SDS_P2;PMS_P1;PMS_P2;Temp;Humidity;BMP_temperature;BMP_pressure;BME280_temperature;BME280_humidity;BME280_pressure;Samples;Min_cycle;Max_cycle;Signal;HPM_P1;HPM_P2
2021/08/21 00:00:38;;;;;;;;;4.75;3.25;;;;;21.63;43.90;101201.59;5082323;27;46033;-49
2021/08/21 00:03:06;;;;;;;;;4.00;4.00;;;;;21.59;44.04;101197.38;5082477;28;45389;-47
2021/08/21 00:05:32;;;;;;;;;4.75;3.00;;;;;21.57;44.11;101197.47;5082738;28;45302;-49
2021/08/21 00:07:57;;;;;;;;;5.50;3.75;;;;;21.54;44.49;101196.72;5080968;28;45366;-48
2021/08/21 00:10:23;;;;;;;;;3.75;3.25;;;;;21.48;44.28;101183.69;5082329;28;45393;-52
2021/08/21 00:12:48;;;;;;;;;4.00;3.25;;;;;21.50;44.42;101197.84;5082095;27;45274;-48
2021/08/21 00:15:17;;;;;;;;;3.00;3.00;;;;;21.46;44.81;101197.13;5082402;28;45255;-48
2021/08/21 00:17:43;;;;;;;;;2.00;2.00;;;;;21.43;44.49;101197.28;5082209;28;45444;-48
2021/08/21 00:20:09;;;;;;;;;3.00;3.00;;;;;21.38;44.35;101192.19;5082039;27;45807;-47
2021/08/21 00:22:34;;;;;;;;;3.00;3.00;;;;;21.37;44.51;101194.91;5080613;28;45283;-47
2021/08/21 00:25:00;;;;;;;;;3.50;3.00;;;;;21.33;44.58;101188.88;5082340;28;45497;-50
2021/08/21 00:27:27;;;;;;;;;2.00;2.00;;;;;21.30;45.02;101175.69;5081987;28;45433;-50
2021/08/21 00:29:53;;;;;;;;;4.00;4.00;;;;;21.29;44.79;101178.44;5081956;27;45280;-46
2021/08/21 00:32:19;;;;;;;;;4.00;4.00;;;;;21.27;44.57;101178.53;5081777;28;45429;-46
2021/08/21 00:34:44;;;;;;;;;3.75;3.00;;;;;21.25;44.83;101177.72;5081971;28;45299;-48
2021/08/21 00:37:10;;;;;;;;;3.75;3.75;;;;;21.21;44.60;101169.00;5081775;28;45321;-46
2021/08/21 00:39:36;;;;;;;;;3.00;3.00;;;;;21.19;44.62;101164.69;5080541;28;47093;-50
2021/08/21 00:42:01;;;;;;;;;3.25;3.25;;;;;21.17;45.08;101163.91;5081248;27;45366;-49
2021/08/21 00:44:26;;;;;;;;;4.50;4.50;;;;;21.15;44.79;101168.47;5081977;28;45295;-46
2021/08/21 00:47:05;;;;;;;;;3.00;3.00;;;;;21.13;44.78;101175.69;5081514;28;45439;-49
2021/08/21 00:49:32;;;;;;;;;6.00;5.00;;;;;21.11;44.74;101173.09;5082144;28;45355;-47
2021/08/21 00:52:04;;;;;;;;;3.00;3.00;;;;;21.07;45.20;101164.38;5081363;27;45300;-49
2021/08/21 00:54:29;;;;;;;;;4.25;4.25;;;;;21.06;45.25;101169.81;5081788;28;45450;-48
2021/08/21 00:56:57;;;;;;;;;4.00;4.00;;;;;21.02;45.16;101166.44;5081362;28;45383;-46
2021/08/21 00:59:22;;;;;;;;;5.00;3.25;;;;;21.01;44.90;101169.19;5081630;28;46154;-48
2021/08/21 01:01:48;;;;;;;;;3.75;3.75;;;;;20.98;45.33;101164.88;5081260;28;45248;-49
2021/08/21 01:04:14;;;;;;;;;5.00;5.00;;;;;20.98;45.54;101170.22;5081723;28;45289;-46
2021/08/21 01:06:40;;;;;;;;;3.75;3.75;;;;;20.96;45.55;101173.91;5081537;28;45280;-48
2021/08/21 01:09:06;;;;;;;;;5.50;4.00;;;;;20.91;45.52;101163.44;5081282;28;46041;-49
2021/08/21 01:11:32;;;;;;;;;4.00;4.00;;;;;20.91;45.04;101163.44;5081271;27;45341;-49
2021/08/21 01:14:01;;;;;;;;;5.50;5.50;;;;;20.90;45.54;101159.03;5081526;28;45406;-50
2021/08/21 01:16:27;;;;;;;;;6.00;6.00;;;;;20.88;45.08;101159.13;5079681;28;45791;-45
2021/08/21 01:18:53;;;;;;;;;4.00;4.00;;;;;20.86;45.69;101150.31;5079883;28;47557;-46
2021/08/21 01:21:19;;;;;;;;;6.00;4.75;;;;;20.86;45.72;101149.47;5079743;27;45298;-47
2021/08/21 01:23:47;;;;;;;;;6.00;6.00;;;;;20.85;45.22;101148.59;5081211;28;45190;-48
2021/08/21 01:26:13;;;;;;;;;4.00;4.00;;;;;20.82;45.64;101151.44;5081031;28;45197;-49
2021/08/21 01:28:39;;;;;;;;;4.00;4.00;;;;;20.80;45.44;101150.63;5080971;28;45453;-49
2021/08/21 01:31:06;;;;;;;;;3.00;3.00;;;;;20.79;45.31;101151.56;5080681;27;45487;-49
2021/08/21 01:33:36;;;;;;;;;3.50;3.50;;;;;20.77;45.47;101148.97;5081155;28;45321;-47
2021/08/21 01:36:02;;;;;;;;;4.75;3.50;;;;;20.77;45.46;101151.66;5080919;27;45480;-47
2021/08/21 01:38:28;;;;;;;;;3.50;3.50;;;;;20.76;45.47;101152.59;5079745;28;47247;-49
2021/08/21 01:40:53;;;;;;;;;3.25;3.25;;;;;20.74;45.55;101154.50;5080900;27;45295;-48
2021/08/21 01:43:20;;;;;;;;;4.50;4.50;;;;;20.73;45.40;101149.22;5079796;28;45438;-50
2021/08/21 01:45:46;;;;;;;;;7.00;5.75;;;;;20.71;45.48;101146.63;5080646;28;45420;-47
2021/08/21 01:48:12;;;;;;;;;5.00;5.00;;;;;20.68;45.97;101144.09;5080659;28;45422;-49
2021/08/21 01:50:37;;;;;;;;;2.75;2.75;;;;;20.67;45.77;101137.00;5080627;28;45515;-47
2021/08/21 01:53:04;;;;;;;;;6.75;4.50;;;;;20.64;45.97;101131.84;5080180;28;45339;-46
2021/08/21 01:55:29;;;;;;;;;5.00;5.00;;;;;20.66;45.66;101143.28;5080764;28;45219;-45
2021/08/21 01:57:55;;;;;;;;;4.50;4.50;;;;;20.62;45.39;101131.88;5079142;28;46026;-50
2021/08/21 02:00:27;;;;;;;;;5.00;4.00;;;;;20.63;45.92;101135.44;5080293;28;45312;-48
2021/08/21 02:02:53;;;;;;;;;7.75;5.00;;;;;20.63;45.61;101140.78;5080727;28;45311;-50
2021/08/21 02:05:19;;;;;;;;;5.50;4.50;;;;;20.63;46.04;101132.78;5080708;28;45387;-50
2021/08/21 02:07:44;;;;;;;;;6.50;4.25;;;;;20.61;45.48;101126.63;5080363;28;45569;-46
2021/08/21 02:10:10;;;;;;;;;6.50;4.00;;;;;20.60;46.05;101133.78;5080520;28;45192;-49
2021/08/21 02:12:36;;;;;;;;;5.00;5.00;;;;;20.59;46.28;101132.06;5080422;28;45468;-50
2021/08/21 02:15:14;;;;;;;;;4.00;4.00;;;;;20.57;46.24;101133.94;5080598;28;45226;-49
2021/08/21 02:17:39;;;;;;;;;7.50;6.00;;;;;20.55;45.84;101135.84;5080282;28;46409;-49
2021/08/21 02:20:11;;;;;;;;;5.00;4.75;;;;;20.54;46.30;101122.53;5080558;28;45390;-48
2021/08/21 02:22:38;;;;;;;;;3.75;3.00;;;;;20.53;45.86;101118.16;5079068;28;45224;-46
2021/08/21 02:25:04;;;;;;;;;4.50;4.50;;;;;20.51;46.38;101120.03;5080416;28;45169;-46
2021/08/21 02:27:36;;;;;;;;;5.50;5.00;;;;;20.50;46.06;101118.31;5079767;28;46303;-51
2021/08/21 02:30:03;;;;;;;;;5.00;5.00;;;;;20.49;46.18;101117.44;5080049;27;45378;-47
2021/08/21 02:32:28;;;;;;;;;5.00;4.00;;;;;20.49;46.53;101116.56;5080001;28;45339;-48
2021/08/21 02:34:54;;;;;;;;;5.25;5.00;;;;;20.48;46.59;101122.84;5080221;27;45323;-48
2021/08/21 02:37:19;;;;;;;;;5.00;5.00;;;;;20.45;45.94;101119.41;5079960;28;46282;-50
2021/08/21 02:39:45;;;;;;;;;5.00;5.00;;;;;20.45;46.27;101122.06;5080205;28;45465;-50
2021/08/21 02:42:11;;;;;;;;;6.00;5.00;;;;;20.46;46.12;101120.25;5080031;28;45394;-47
2021/08/21 02:44:37;;;;;;;;;5.50;5.00;;;;;20.46;46.17;101120.25;5080115;28;45382;-50
2021/08/21 02:47:03;;;;;;;;;6.00;6.00;;;;;20.45;46.47;101114.06;5061424;28;45620;-50
2021/08/21 02:49:28;;;;;;;;;5.00;4.50;;;;;20.45;46.23;101114.06;5080175;28;45372;-49
2021/08/21 02:51:53;;;;;;;;;5.00;4.00;;;;;20.45;46.72;101119.41;5079949;28;45349;-47
2021/08/21 02:54:19;;;;;;;;;4.25;4.25;;;;;20.46;46.21;101130.94;5080340;28;45174;-49
2021/08/21 02:56:44;;;;;;;;;4.50;4.50;;;;;20.43;46.82;101117.75;5079620;28;45227;-48
2021/08/21 02:59:09;;;;;;;;;4.00;4.00;;;;;20.43;46.77;101121.28;5079901;28;45381;-49
2021/08/21 03:01:35;;;;;;;;;6.00;6.00;;;;;20.41;46.72;101123.13;5079671;28;45520;-50
2021/08/21 03:04:00;;;;;;;;;5.50;5.50;;;;;20.38;46.44;101114.44;5081550;28;45385;-49
2021/08/21 03:06:25;;;;;;;;;5.00;5.00;;;;;20.38;46.98;101115.31;5083235;28;46259;-50
2021/08/21 03:08:51;;;;;;;;;7.00;6.00;;;;;20.38;46.33;101115.31;5083671;28;46515;-47
2021/08/21 03:11:16;;;;;;;;;5.50;5.00;;;;;20.35;46.41;101109.25;5083372;27;45723;-48
2021/08/21 03:13:41;;;;;;;;;6.00;5.00;;;;;20.38;46.85;101112.63;5083409;28;45156;-50
2021/08/21 03:16:07;;;;;;;;;5.25;4.50;;;;;20.38;46.45;101107.28;5082901;28;45687;-50
2021/08/21 03:18:33;;;;;;;;;4.25;4.25;;;;;20.36;46.56;101106.50;5083216;28;45162;-48
2021/08/21 03:20:58;;;;;;;;;5.75;5.25;;;;;20.35;46.40;101111.91;5082010;27;45410;-50
2021/08/21 03:23:23;;;;;;;;;7.75;4.50;;;;;20.34;46.57;101110.19;5083039;28;45279;-45
2021/08/21 03:25:49;;;;;;;;;7.00;6.50;;;;;20.33;46.67;101113.81;5082885;28;45469;-47
2021/08/21 03:28:14;;;;;;;;;4.25;4.25;;;;;20.30;47.04;101109.47;5082891;28;45311;-49
2021/08/21 03:30:40;;;;;;;;;5.50;5.50;;;;;20.28;46.77;101100.69;5082821;27;45410;-51
2021/08/21 03:33:08;;;;;;;;;5.25;5.25;;;;;20.28;47.01;101106.03;5082851;28;45508;-45
2021/08/21 03:35:34;;;;;;;;;5.50;5.50;;;;;20.25;47.05;101100.81;5082790;27;47039;-49
2021/08/21 03:37:59;;;;;;;;;4.75;4.75;;;;;20.26;47.06;101099.88;5082885;28;45264;-48
2021/08/21 03:40:25;;;;;;;;;6.25;4.75;;;;;20.22;46.76;101101.00;5082902;27;45496;-48
2021/08/21 03:42:50;;;;;;;;;4.75;4.75;;;;;20.22;47.20;101104.50;5082985;28;45239;-47
2021/08/21 03:45:15;;;;;;;;;6.00;6.00;;;;;20.21;47.16;101105.44;5082572;28;45260;-48
2021/08/21 03:47:42;;;;;;;;;4.50;4.25;;;;;20.19;46.68;101102.00;5082946;28;45218;-48
2021/08/21 03:50:08;;;;;;;;;5.00;5.00;;;;;20.19;46.79;101095.78;5082672;27;45305;-48
2021/08/21 03:52:33;;;;;;;;;6.75;6.25;;;;;20.14;47.48;101090.69;5082662;28;45425;-50
2021/08/21 03:54:58;;;;;;;;;4.25;4.25;;;;;20.16;47.23;101095.94;5082407;28;45394;-50
2021/08/21 03:57:24;;;;;;;;;4.50;4.00;;;;;20.12;47.07;101098.78;5082507;28;45447;-48
2021/08/21 03:59:49;;;;;;;;;5.75;5.25;;;;;20.10;46.85;101087.31;5082475;28;45291;-50
2021/08/21 04:02:14;;;;;;;;;4.00;4.00;;;;;20.08;47.05;101097.19;5082697;28;45413;-48
2021/08/21 04:04:40;;;;;;;;;5.00;5.00;;;;;20.06;46.97;101088.41;5082161;28;46037;-49
2021/08/21 04:07:05;;;;;;;;;6.25;6.00;;;;;20.05;47.21;101089.34;5081194;28;45331;-49
2021/08/21 04:09:30;;;;;;;;;5.75;5.00;;;;;19.99;47.05;101081.63;5082532;28;45417;-48
2021/08/21 04:11:56;;;;;;;;;4.00;4.00;;;;;20.00;47.44;101091.38;5082418;27;45457;-50
2021/08/21 04:14:21;;;;;;;;;7.50;5.75;;;;;19.98;47.37;101088.75;5082406;28;45444;-48
2021/08/21 04:16:46;;;;;;;;;6.00;6.00;;;;;19.96;47.06;101081.75;5081533;28;45417;-48
2021/08/21 04:19:12;;;;;;;;;6.25;5.00;;;;;19.94;47.48;101078.34;5082453;28;45342;-49
2021/08/21 04:21:40;;;;;;;;;8.50;6.75;;;;;19.92;47.31;101078.41;5082235;27;45350;-49
2021/08/21 04:24:06;;;;;;;;;6.00;6.00;;;;;19.90;47.43;101082.06;5082050;28;46068;-49
2021/08/21 04:26:31;;;;;;;;;5.75;5.75;;;;;19.89;47.17;101075.03;5080735;28;45222;-51
2021/08/21 04:28:57;;;;;;;;;7.00;7.00;;;;;19.87;47.57;101079.56;5082045;28;45688;-51
2021/08/21 04:31:22;;;;;;;;;3.25;2.75;;;;;19.86;47.22;101076.03;5081877;27;45334;-50
2021/08/21 04:33:47;;;;;;;;;5.25;5.00;;;;;19.86;47.52;101072.47;5082075;28;45223;-51
2021/08/21 04:36:13;;;;;;;;;6.75;6.75;;;;;19.81;47.33;101062.88;5082092;28;45277;-49
2021/08/21 04:38:39;;;;;;;;;7.75;6.50;;;;;19.83;47.76;101067.31;5082225;28;45295;-48
2021/08/21 04:41:04;;;;;;;;;8.00;5.50;;;;;19.83;47.28;101067.31;5081944;27;45593;-53
2021/08/21 04:43:29;;;;;;;;;6.00;6.00;;;;;19.81;47.82;101065.53;5081731;28;46023;-45
2021/08/21 04:45:55;;;;;;;;;6.00;6.00;;;;;19.80;47.70;101073.63;5081757;28;45322;-45
2021/08/21 04:48:20;;;;;;;;;6.75;6.00;;;;;19.78;48.05;101067.50;5080580;28;45251;-45
2021/08/21 04:50:45;;;;;;;;;8.00;5.00;;;;;19.77;48.04;101073.75;5081825;28;45342;-46
2021/08/21 04:53:11;;;;;;;;;5.75;5.75;;;;;19.76;48.00;101077.34;5081652;28;45433;-45
2021/08/21 04:55:36;;;;;;;;;7.25;7.25;;;;;19.75;48.06;101076.50;5081729;28;47594;-46
2021/08/21 04:58:02;;;;;;;;;5.75;4.00;;;;;19.76;47.69;101077.34;5081694;28;45307;-47
2021/08/21 05:00:29;;;;;;;;;6.50;6.50;;;;;19.74;48.04;101076.59;5081441;27;45325;-47
2021/08/21 05:02:57;;;;;;;;;4.25;4.25;;;;;19.73;47.96;101073.03;5081487;28;46870;-47
2021/08/21 05:05:23;;;;;;;;;6.00;6.00;;;;;19.71;48.02;101074.03;5081638;27;45257;-48
2021/08/21 05:07:48;;;;;;;;;5.75;5.75;;;;;19.72;48.00;101076.66;5080383;28;45197;-46
2021/08/21 05:10:15;;;;;;;;;6.75;5.00;;;;;19.68;47.87;101075.06;5081623;27;45425;-48
2021/08/21 05:12:41;;;;;;;;;5.75;5.75;;;;;19.70;48.35;101075.84;5079919;28;45257;-47
2021/08/21 05:15:07;;;;;;;;;8.25;7.00;;;;;19.69;47.92;101086.59;5079908;28;45354;-47
2021/08/21 05:17:33;;;;;;;;;7.50;7.00;;;;;19.69;47.89;101078.59;5081458;28;45331;-48
2021/08/21 05:20:05;;;;;;;;;6.50;6.25;;;;;19.69;48.06;101083.94;5081074;28;46271;-45
2021/08/21 05:23:31;;;;;;;;;7.00;6.50;;;;;19.68;48.05;101080.38;5080869;28;47174;-46
2021/08/21 05:25:25;;;;;;;;;6.25;6.25;;;;;19.68;48.00;101085.72;5072058;28;45546;-46
2021/08/21 05:27:51;;;;;;;;;5.00;5.00;;;;;19.64;48.02;101087.66;5080000;28;45347;-47
2021/08/21 05:30:16;;;;;;;;;5.25;5.25;;;;;19.67;48.16;101085.78;5080921;28;45344;-48
2021/08/21 05:32:42;;;;;;;;;6.75;6.00;;;;;19.65;48.16;101092.06;5080938;28;45874;-45
2021/08/21 05:35:07;;;;;;;;;5.50;4.50;;;;;19.66;48.50;101092.94;5079890;28;45737;-47
2021/08/21 05:37:33;;;;;;;;;7.00;6.50;;;;;19.67;48.04;101093.78;5079728;28;45531;-48
2021/08/21 05:39:58;;;;;;;;;6.00;5.50;;;;;19.67;48.57;101099.97;5081076;27;45442;-44
2021/08/21 05:42:23;;;;;;;;;7.00;6.00;;;;;19.67;48.36;101104.47;5080653;28;45347;-50
2021/08/21 05:44:50;;;;;;;;;5.50;5.50;;;;;19.67;48.22;101094.66;5080697;28;45285;-49
2021/08/21 05:47:15;;;;;;;;;7.25;6.00;;;;;19.68;48.45;101098.19;5080928;28;45390;-47
2021/08/21 05:49:40;;;;;;;;;6.50;6.50;;;;;19.68;48.53;101096.38;5080875;28;45450;-45
2021/08/21 05:52:06;;;;;;;;;6.00;6.00;;;;;19.69;48.20;101107.94;5080409;28;46382;-46
2021/08/21 05:54:31;;;;;;;;;6.00;5.75;;;;;19.70;48.49;101113.19;5079723;28;45193;-47
2021/08/21 05:56:57;;;;;;;;;7.25;6.25;;;;;19.70;48.51;101117.63;5080786;28;45308;-48
2021/08/21 05:59:23;;;;;;;;;5.25;5.25;;;;;19.68;48.30;101112.38;5080857;28;45453;-46
2021/08/21 06:01:48;;;;;;;;;7.75;6.00;;;;;19.70;48.32;101113.19;5080339;28;45252;-45
2021/08/21 06:04:14;;;;;;;;;7.75;5.00;;;;;19.70;48.83;101113.19;5079374;28;45454;-48
2021/08/21 06:06:39;;;;;;;;;8.50;7.25;;;;;19.68;48.52;101107.03;5080673;28;45304;-46
2021/08/21 06:09:04;;;;;;;;;8.25;7.50;;;;;19.72;48.87;101118.44;5080698;28;45505;-46
2021/08/21 06:11:30;;;;;;;;;8.00;4.75;;;;;19.69;48.75;101113.25;5080357;27;47066;-47
2021/08/21 06:13:56;;;;;;;;;8.00;8.00;;;;;19.72;48.31;101113.97;5080544;28;45395;-45
2021/08/21 06:16:21;;;;;;;;;7.75;6.00;;;;;19.72;48.59;101115.75;5080435;28;45309;-47
2021/08/21 06:18:47;;;;;;;;;8.25;7.00;;;;;19.74;48.60;101120.09;5080501;28;45402;-46
2021/08/21 06:21:13;;;;;;;;;8.50;7.50;;;;;19.72;48.88;101116.66;5080005;27;46224;-49
2021/08/21 06:23:38;;;;;;;;;6.50;6.50;;;;;19.74;49.04;101120.09;5080344;28;45445;-49
2021/08/21 06:26:04;;;;;;;;;11.50;11.00;;;;;19.74;48.82;101120.09;5080384;28;45786;-46
2021/08/21 06:28:29;;;;;;;;;8.50;8.00;;;;;19.75;49.08;101116.50;5080482;28;45235;-47
2021/08/21 06:30:54;;;;;;;;;8.00;8.00;;;;;19.76;49.17;101114.69;5079706;28;47058;-46
2021/08/21 06:33:19;;;;;;;;;14.75;10.75;;;;;19.76;48.74;101115.56;5080231;28;45353;-47
2021/08/21 06:35:45;;;;;;;;;9.75;9.00;;;;;19.75;48.74;101112.97;5080213;27;45244;-45
2021/08/21 06:38:10;;;;;;;;;9.25;8.25;;;;;19.76;49.02;101118.22;5080714;28;45294;-46
2021/08/21 06:40:35;;;;;;;;;11.50;11.00;;;;;19.77;48.93;101121.75;5083641;27;45463;-50
2021/08/21 06:43:01;;;;;;;;;11.75;11.75;;;;;19.74;49.31;101109.44;5083708;28;45268;-49
2021/08/21 06:45:26;;;;;;;;;14.50;10.75;;;;;19.77;49.19;101109.31;5083597;28;45583;-50
2021/08/21 06:47:54;;;;;;;;;10.50;9.25;;;;;19.74;49.37;101097.91;5083837;28;45240;-45
2021/08/21 06:50:20;;;;;;;;;14.50;10.50;;;;;19.80;49.52;101098.47;5083408;27;47063;-49
2021/08/21 06:52:45;;;;;;;;;12.00;10.75;;;;;19.79;49.11;101095.88;5083573;28;45353;-46
2021/08/21 06:55:10;;;;;;;;;13.00;9.25;;;;;19.81;49.63;101094.88;5083631;28;45318;-45
2021/08/21 06:57:36;;;;;;;;;13.50;10.00;;;;;19.84;49.22;101099.22;5083484;28;45373;-45
2021/08/21 07:00:01;;;;;;;;;14.25;13.00;;;;;19.85;49.37;101100.09;5083039;27;46271;-46
2021/08/21 07:02:26;;;;;;;;;14.00;10.25;;;;;19.87;49.28;101090.22;5083678;28;45302;-46
2021/08/21 07:04:53;;;;;;;;;15.00;12.00;;;;;19.90;49.22;101090.06;5083734;28;45389;-47
2021/08/21 07:07:18;;;;;;;;;12.00;11.25;;;;;19.92;49.30;101090.84;5082144;28;45346;-46
2021/08/21 07:09:43;;;;;;;;;8.25;6.50;;;;;19.95;49.34;101090.72;5082802;28;49076;-44
2021/08/21 07:12:09;;;;;;;;;10.00;10.00;;;;;19.97;49.40;101081.72;5083311;28;45452;-44
2021/08/21 07:14:34;;;;;;;;;10.50;10.50;;;;;19.99;49.91;101086.97;5081818;28;45272;-46
2021/08/21 07:17:00;;;;;;;;;11.75;10.00;;;;;20.04;49.39;101100.94;5081867;28;45512;-47
2021/08/21 07:19:25;;;;;;;;;11.50;8.50;;;;;20.05;49.75;101088.47;5083115;28;46032;-48
2021/08/21 07:21:53;;;;;;;;;7.75;7.00;;;;;20.07;49.77;101095.44;5083352;27;45239;-46
2021/08/21 07:24:22;;;;;;;;;13.00;9.00;;;;;20.12;49.60;101104.13;5083141;28;45461;-47
2021/08/21 07:26:48;;;;;;;;;9.50;8.75;;;;;20.16;50.01;101101.28;5082976;28;45520;-49
2021/08/21 07:29:13;;;;;;;;;7.00;5.25;;;;;20.19;49.80;101098.47;5082891;28;45445;-46
2021/08/21 07:31:39;;;;;;;;;9.50;9.50;;;;;20.23;49.45;101100.06;5081304;27;45421;-49
2021/08/21 07:34:04;;;;;;;;;9.00;8.25;;;;;20.25;49.91;101098.16;5083068;27;45335;-46
2021/08/21 07:36:30;;;;;;;;;8.25;8.25;;;;;20.29;49.50;101107.75;5081730;28;45185;-47
2021/08/21 07:38:55;;;;;;;;;9.50;8.25;;;;;20.32;49.78;101107.59;5082797;28;45711;-48
2021/08/21 07:41:20;;;;;;;;;9.00;8.50;;;;;20.38;49.56;101117.13;5081622;27;45432;-49
2021/08/21 07:43:46;;;;;;;;;8.50;8.50;;;;;20.40;49.70;101113.44;5082728;28;45248;-46
2021/08/21 07:46:12;;;;;;;;;10.00;8.00;;;;;20.45;50.16;101113.19;5082841;28;45215;-46
2021/08/21 07:48:37;;;;;;;;;11.25;10.25;;;;;20.51;49.65;101109.34;5081227;28;47071;-48
2021/08/21 07:51:05;;;;;;;;;8.50;8.50;;;;;20.56;49.68;101112.66;5081661;28;45266;-46
2021/08/21 07:53:30;;;;;;;;;10.75;9.00;;;;;20.60;50.19;101111.56;5082726;28;45301;-47
2021/08/21 07:55:55;;;;;;;;;10.25;9.00;;;;;20.63;49.79;101108.75;5082748;28;45307;-47
2021/08/21 07:58:21;;;;;;;;;10.00;9.00;;;;;20.67;49.91;101110.31;5082241;28;45286;-47
2021/08/21 08:00:46;;;;;;;;;10.00;9.00;;;;;20.70;49.90;101107.47;5082261;27;45897;-48
2021/08/21 08:03:14;;;;;;;;;10.75;8.00;;;;;20.77;50.17;101105.41;5082732;28;45424;-49
2021/08/21 08:05:43;;;;;;;;;10.00;8.00;;;;;20.86;50.29;101107.59;5082442;28;45487;-49
2021/08/21 08:08:08;;;;;;;;;7.50;6.50;;;;;20.90;49.86;101101.13;5080927;28;45712;-46
2021/08/21 08:10:34;;;;;;;;;8.75;8.75;;;;;20.97;49.67;101095.47;5082245;27;45362;-48
2021/08/21 08:12:59;;;;;;;;;9.50;8.75;;;;;21.04;50.07;101103.13;5082185;28;45979;-46
2021/08/21 08:15:25;;;;;;;;;10.00;8.50;;;;;21.11;50.39;101098.28;5081995;28;47943;-46
2021/08/21 08:17:50;;;;;;;;;8.75;8.75;;;;;21.17;49.79;101105.09;5082038;28;47083;-48
2021/08/21 08:20:15;;;;;;;;;6.75;6.75;;;;;21.23;49.92;101110.13;5082283;27;45355;-46
2021/08/21 08:22:41;;;;;;;;;9.25;7.25;;;;;21.27;49.83;101104.53;5082105;28;45233;-46
2021/08/21 08:25:08;;;;;;;;;10.75;8.75;;;;;21.38;49.89;101109.34;5082246;28;45310;-45
2021/08/21 08:27:33;;;;;;;;;6.75;6.75;;;;;21.42;50.48;101108.22;5081892;28;46326;-47
2021/08/21 08:29:58;;;;;;;;;9.00;7.75;;;;;21.49;49.96;101105.19;5081634;27;45415;-47
2021/08/21 08:32:24;;;;;;;;;13.75;11.25;;;;;21.54;50.36;101098.66;5081797;28;45339;-47
2021/08/21 08:34:49;;;;;;;;;8.25;7.75;;;;;21.65;50.01;101102.59;5081869;28;45584;-47
2021/08/21 08:37:14;;;;;;;;;7.00;7.00;;;;;21.73;50.12;101095.84;5081628;28;46162;-48
2021/08/21 08:39:41;;;;;;;;;6.75;6.75;;;;;21.81;50.23;101100.78;5081958;28;45235;-48
2021/08/21 08:42:08;;;;;;;;;9.75;8.75;;;;;21.87;50.11;101097.78;5080292;27;45223;-46
2021/08/21 08:44:35;;;;;;;;;6.75;6.50;;;;;21.95;49.98;101092.00;5081607;28;45217;-48
2021/08/21 08:47:01;;;;;;;;;15.75;12.50;;;;;22.03;49.87;101103.09;5081282;28;45407;-46
2021/08/21 08:49:28;;;;;;;;;13.75;13.75;;;;;22.12;50.23;101093.69;5081864;28;45429;-48
2021/08/21 08:51:53;;;;;;;;;7.25;6.50;;;;;22.22;49.93;101097.56;5081381;28;45335;-44
2021/08/21 08:54:19;;;;;;;;;6.75;6.75;;;;;22.28;49.66;101087.47;5081568;28;45312;-47
2021/08/21 08:56:44;;;;;;;;;7.25;7.25;;;;;22.39;49.72;101096.63;5081201;28;45970;-45
2021/08/21 08:59:09;;;;;;;;;8.00;8.00;;;;;22.49;50.06;101098.75;5081641;28;45378;-51
2021/08/21 09:01:35;;;;;;;;;7.25;7.25;;;;;22.56;49.87;101092.97;5080995;27;45236;-46
2021/08/21 09:04:21;;;;;;;;;7.00;6.25;;;;;22.68;50.02;101103.91;5081710;28;45154;-46
2021/08/21 09:06:47;;;;;;;;;8.75;8.00;;;;;22.78;49.92;101105.06;5079846;28;45280;-50
2021/08/21 09:09:18;;;;;;;;;7.50;6.75;;;;;22.83;49.77;101092.25;5081360;28;45193;-50
2021/08/21 09:11:52;;;;;;;;;9.00;9.00;;;;;22.94;49.89;101102.31;5081127;27;45290;-46
2021/08/21 09:14:25;;;;;;;;;8.00;7.00;;;;;23.00;49.87;101104.63;5081528;28;45387;-47
2021/08/21 09:16:52;;;;;;;;;9.75;7.75;;;;;23.09;49.74;101105.88;5081369;28;46298;-49
2021/08/21 09:19:25;;;;;;;;;7.25;7.25;;;;;23.18;49.84;101109.84;5080985;28;45438;-45
2021/08/21 09:21:58;;;;;;;;;7.50;7.50;;;;;23.28;49.94;101105.66;5063197;28;45345;-50
2021/08/21 09:24:25;;;;;;;;;6.75;6.75;;;;;23.35;49.62;101112.34;5081052;28;45510;-47
2021/08/21 09:26:50;;;;;;;;;6.75;6.75;;;;;23.42;49.54;101094.06;5080945;28;46289;-47
2021/08/21 09:29:27;;;;;;;;;7.75;7.75;;;;;23.52;49.66;101095.22;5080788;28;45400;-50
2021/08/21 09:32:27;;;;;;;;;7.75;7.75;;;;;23.63;49.51;101097.19;5079782;27;45370;-48
2021/08/21 09:35:02;;;;;;;;;11.25;7.25;;;;;23.73;49.58;101100.16;5069860;28;45327;-55
2021/08/21 09:37:28;;;;;;;;;9.25;8.50;;;;;23.86;49.40;101094.84;5079210;28;47491;-48
2021/08/21 09:40:02;;;;;;;;;10.25;8.25;;;;;24.00;49.49;101097.53;5080710;28;45376;-48
2021/08/21 09:42:37;;;;;;;;;10.00;9.00;;;;;24.10;49.36;101107.66;5062499;28;45252;-46
2021/08/21 09:45:09;;;;;;;;;8.25;8.00;;;;;24.21;49.21;101094.38;5080672;28;45461;-47
2021/08/21 09:47:39;;;;;;;;;8.00;7.00;;;;;24.34;49.50;101095.31;5080565;28;46336;-48
2021/08/21 09:50:17;;;;;;;;;10.50;8.00;;;;;24.49;49.46;101080.00;5080600;27;45510;-48
2021/08/21 09:52:43;;;;;;;;;7.00;6.25;;;;;24.62;49.44;101082.69;5080770;28;45410;-49
2021/08/21 09:55:15;;;;;;;;;7.75;7.75;;;;;24.72;48.89;101080.28;5080369;28;45505;-48
2021/08/21 09:57:41;;;;;;;;;8.75;7.75;;;;;24.82;49.36;101075.13;5079153;28;47265;-50
2021/08/21 10:00:10;;;;;;;;;9.50;9.50;;;;;24.98;48.74;101075.78;5080182;27;45605;-48
2021/08/21 10:02:37;;;;;;;;;11.00;11.00;;;;;25.13;48.50;101067.59;5079602;28;45208;-51
2021/08/21 10:05:03;;;;;;;;;6.25;6.00;;;;;25.25;48.56;101058.66;5080461;28;45654;-48
2021/08/21 10:07:38;;;;;;;;;11.00;10.00;;;;;25.38;48.98;101063.19;5080390;28;47239;-50
2021/08/21 10:10:06;;;;;;;;;7.50;7.25;;;;;25.55;49.07;101068.22;5080439;28;45265;-50
2021/08/21 10:12:34;;;;;;;;;9.25;9.25;;;;;25.70;48.78;101076.13;5080221;28;45360;-47
2021/08/21 10:15:02;;;;;;;;;8.75;8.75;;;;;25.87;48.80;101070.38;5079777;28;45176;-49
2021/08/21 10:17:30;;;;;;;;;8.50;8.50;;;;;25.99;48.22;101068.63;5080337;28;45337;-51
2021/08/21 10:19:56;;;;;;;;;7.00;7.00;;;;;26.16;47.97;101070.06;5080203;28;45401;-51
2021/08/21 10:22:26;;;;;;;;;9.75;9.00;;;;;26.31;47.92;101076.13;5080166;28;45367;-51
2021/08/21 10:24:53;;;;;;;;;10.50;9.50;;;;;26.45;48.44;101075.09;5080547;28;45286;-47
2021/08/21 10:27:24;;;;;;;;;7.50;7.25;;;;;26.59;47.63;101069.50;5079971;27;46203;-50
2021/08/21 10:30:26;;;;;;;;;8.00;8.00;;;;;26.77;47.49;101071.78;5079932;28;45301;-49
2021/08/21 10:33:02;;;;;;;;;8.50;7.50;;;;;26.88;48.13;101071.81;5073044;28;45377;-46
2021/08/21 10:36:08;;;;;;;;;8.25;8.25;;;;;27.01;47.49;101071.69;5080052;27;45280;-50
2021/08/21 10:38:36;;;;;;;;;7.00;7.00;;;;;27.17;47.95;101065.09;5069945;28;45478;-50
2021/08/21 10:41:21;;;;;;;;;8.25;8.25;;;;;27.30;47.57;101071.22;5080032;28;45291;-50
2021/08/21 10:43:48;;;;;;;;;7.25;7.25;;;;;27.44;47.05;101067.44;5079732;28;45472;-52
2021/08/21 10:46:33;;;;;;;;;9.00;7.75;;;;;27.62;47.07;101066.94;5058244;28;45291;-49
2021/08/21 10:49:07;;;;;;;;;8.00;8.00;;;;;27.76;47.44;101066.69;5077869;28;47303;-49
2021/08/21 10:51:42;;;;;;;;;6.75;6.75;;;;;27.93;47.43;101067.97;5079796;28;45225;-50
2021/08/21 10:54:25;;;;;;;;;10.00;7.00;;;;;28.14;47.14;101069.88;5080044;28;45159;-51
2021/08/21 10:56:52;;;;;;;;;10.00;7.00;;;;;28.32;46.91;101071.06;5079806;28;45232;-50
2021/08/21 10:59:44;;;;;;;;;8.50;7.75;;;;;28.58;46.95;101062.59;5079603;28;45342;-51
2021/08/21 11:02:31;;;;;;;;;8.00;6.75;;;;;28.87;46.88;101075.47;5066357;28;45324;-50
2021/08/21 11:04:58;;;;;;;;;6.00;6.00;;;;;29.06;46.87;101077.41;5079725;27;45236;-50
2021/08/21 11:07:30;;;;;;;;;8.25;7.75;;;;;29.23;46.72;101069.66;5079778;28;45504;-50
2021/08/21 11:10:26;;;;;;;;;10.00;10.00;;;;;29.33;46.04;101065.16;5079422;27;46981;-50
2021/08/21 11:12:54;;;;;;;;;9.50;9.50;;;;;29.47;46.04;101059.38;5079388;28;45247;-50
2021/08/21 11:15:22;;;;;;;;;8.00;6.75;;;;;29.58;45.73;101071.09;5079704;28;45374;-46
2021/08/21 11:17:48;;;;;;;;;8.25;7.25;;;;;29.65;45.97;101075.81;5079561;28;45334;-48
2021/08/21 11:20:30;;;;;;;;;6.75;6.75;;;;;29.75;46.04;101056.00;5079527;28;45331;-49
2021/08/21 11:23:07;;;;;;;;;9.00;7.75;;;;;29.89;45.45;101057.53;5079200;28;45463;-50
2021/08/21 11:25:41;;;;;;;;;6.75;6.00;;;;;29.99;45.32;101066.50;5080463;28;45369;-50